Time;durP1;ratioP1;P1;durP2;ratioP2;P2;SDS_P1;SDS_P2;PMS_P1;PMS_P2;Temp;Humidity;BMP_temperature;BMP_pressure;BME280_temperature;BME280_humidity;BME280_pressure;Samples;Min_cycle;Max_cycle;Signal;HPM_P1;HPM_P2
2022/03/10 00:00:07;;;;;;;3.93;2.07;;;0.30;64.90;;;;;;6223683;28;20338;-62
2022/03/10 00:03:13;;;;;;;3.63;2.40;;;0.30;64.80;;;;;;6245057;28;20272;-62
2022/03/10 00:06:13;;;;;;;3.90;2.07;;;0.30;65.20;;;;;;6237529;28;20195;-62
2022/03/10 00:09:14;;;;;;;2.30;2.10;;;0.20;65.70;;;;;;6243011;28;20193;-62
2022/03/10 00:12:15;;;;;;;5.07;2.33;;;0.20;65.40;;;;;;6222074;28;20253;-62
2022/03/10 00:15:19;;;;;;;3.53;2.30;;;0.10;65.70;;;;;;6241901;28;20200;-62
2022/03/10 00:18:20;;;;;;;3.50;2.30;;;0.10;65.60;;;;;;6254066;28;20203;-62
2022/03/10 00:21:21;;;;;;;2.83;2.20;;;0.10;65.50;;;;;;6229680;28;20238;-62
2022/03/10 00:24:22;;;;;;;4.40;2.27;;;0.10;66.00;;;;;;6246617;28;20279;-62
2022/03/10 00:27:22;;;;;;;2.90;2.30;;;0.10;65.60;;;;;;6234641;28;20245;-62
2022/03/10 00:30:24;;;;;;;3.17;2.10;;;0.10;65.70;;;;;;6249451;28;20201;-62
2022/03/10 00:33:25;;;;;;;5.73;3.13;;;0.10;65.70;;;;;;6250511;28;20199;-62
2022/03/10 00:36:25;;;;;;;3.50;2.63;;;0.10;65.70;;;;;;6234073;28;20222;-62
2022/03/10 00:39:26;;;;;;;3.50;2.20;;;0.10;65.90;;;;;;6237225;28;20202;-62
2022/03/10 00:42:27;;;;;;;2.53;1.97;;;0.10;65.70;;;;;;6246814;28;20227;-62
2022/03/10 00:45:28;;;;;;;3.63;2.27;;;0.10;65.70;;;;;;6245931;28;20193;-62
2022/03/10 00:48:29;;;;;;;4.63;2.40;;;0.00;65.90;;;;;;6258355;28;20206;-62
2022/03/10 00:51:29;;;;;;;4.47;2.30;;;0.00;65.80;;;;;;6218622;28;20202;-62
2022/03/10 00:54:30;;;;;;;3.80;2.60;;;0.10;66.20;;;;;;6228200;28;20223;-62
2022/03/10 00:57:31;;;;;;;5.90;2.53;;;0.00;66.50;;;;;;6233241;28;20201;-62
2022/03/10 01:00:32;;;;;;;4.00;2.63;;;0.00;66.40;;;;;;6225871;28;20256;-62
2022/03/10 01:03:34;;;;;;;2.67;1.80;;;-3276.70;66.70;;;;;;6242162;28;20191;-62
2022/03/10 01:06:35;;;;;;;2.40;1.80;;;-3276.70;66.80;;;;;;6213054;28;20195;-62
2022/03/10 01:09:36;;;;;;;2.23;1.70;;;-3276.70;66.90;;;;;;6228851;28;20194;-62
2022/03/10 01:12:41;;;;;;;3.37;2.07;;;-3276.70;66.70;;;;;;6243254;28;20191;-62
2022/03/10 01:15:45;;;;;;;2.53;2.00;;;-3276.70;66.80;;;;;;6249854;28;20199;-62
2022/03/10 01:18:46;;;;;;;2.60;1.97;;;-3276.70;66.80;;;;;;6253027;28;20181;-62
2022/03/10 01:21:47;;;;;;;3.47;2.60;;;-3276.70;67.10;;;;;;6241291;28;20317;-62
2022/03/10 01:24:48;;;;;;;2.13;1.80;;;-3276.60;67.30;;;;;;6230188;28;20242;-62
2022/03/10 01:27:48;;;;;;;3.23;2.10;;;-3276.60;67.30;;;;;;6232898;28;20193;-62
2022/03/10 01:30:49;;;;;;;2.83;2.30;;;-3276.50;67.70;;;;;;6229399;28;20205;-62
2022/03/10 01:33:50;;;;;;;5.53;2.00;;;-3276.50;67.70;;;;;;6240593;28;20212;-62
2022/03/10 01:36:51;;;;;;;2.57;2.00;;;-3276.50;68.10;;;;;;6232429;28;20273;-62
2022/03/10 01:39:52;;;;;;;4.07;2.47;;;-3276.40;68.00;;;;;;6208189;28;20214;-62
2022/03/10 01:42:53;;;;;;;2.80;2.40;;;-3276.50;67.80;;;;;;6208245;28;20274;-62
2022/03/10 01:45:54;;;;;;;4.90;2.67;;;-3276.40;67.90;;;;;;6227321;28;20190;-62
2022/03/10 01:48:55;;;;;;;2.90;2.20;;;-3276.40;67.80;;;;;;6232784;28;20182;-62
2022/03/10 01:51:56;;;;;;;3.13;2.03;;;-3276.40;67.70;;;;;;6213852;28;20206;-62
2022/03/10 01:54:58;;;;;;;3.27;2.33;;;-3276.40;67.60;;;;;;6208262;28;20199;-62
2022/03/10 01:57:59;;;;;;;5.70;2.30;;;-3276.40;67.60;;;;;;6210623;28;20186;-62
2022/03/10 02:01:00;;;;;;;3.60;2.40;;;-3276.40;67.60;;;;;;6231802;28;20241;-62
2022/03/10 02:04:01;;;;;;;2.60;2.40;;;-3276.40;67.90;;;;;;6232522;28;20194;-62
2022/03/10 02:07:05;;;;;;;2.50;2.27;;;-3276.30;68.10;;;;;;6232075;28;20191;-62
2022/03/10 02:10:16;;;;;;;6.10;2.60;;;-3276.40;68.10;;;;;;6245544;28;20277;-62
2022/03/10 02:13:17;;;;;;;3.67;2.70;;;-3276.30;68.30;;;;;;6224371;28;20196;-62
2022/03/10 02:19:37;;;;;;;3.80;2.70;;;-3276.50;68.00;;;;;;6234668;28;20191;-62
2022/03/10 02:22:38;;;;;;;3.77;2.67;;;-3276.40;68.40;;;;;;6243330;28;20245;-62
2022/03/10 02:25:41;;;;;;;5.77;2.70;;;-3276.40;68.40;;;;;;6231864;28;20190;-62
2022/03/10 02:28:45;;;;;;;4.13;2.40;;;-3276.30;69.00;;;;;;6212218;28;20187;-62
2022/03/10 02:31:46;;;;;;;3.53;2.53;;;-3276.30;68.70;;;;;;6223816;28;20198;-62
2022/03/10 02:34:48;;;;;;;3.53;2.40;;;-3276.30;68.40;;;;;;6237292;28;20189;-62
2022/03/10 02:37:49;;;;;;;4.23;2.33;;;-3276.20;69.20;;;;;;6228289;28;20194;-62
2022/03/10 02:40:50;;;;;;;3.40;2.37;;;-3276.20;69.30;;;;;;6248514;28;20226;-62
2022/03/10 02:43:51;;;;;;;2.67;2.47;;;-3276.20;69.10;;;;;;6231649;28;20240;-62
2022/03/10 02:46:52;;;;;;;4.03;2.60;;;-3276.20;69.00;;;;;;6236790;28;20194;-62
2022/03/10 02:49:52;;;;;;;3.20;2.67;;;-3276.20;69.20;;;;;;6236635;28;20281;-62
2022/03/10 02:52:54;;;;;;;2.67;2.47;;;-3276.10;69.20;;;;;;6237187;28;20262;-62
2022/03/10 02:55:54;;;;;;;3.03;2.40;;;-3276.10;69.20;;;;;;6225177;28;20208;-62
2022/03/10 02:58:55;;;;;;;3.10;2.47;;;-3276.00;69.50;;;;;;6211757;28;20191;-63
2022/03/10 03:01:56;;;;;;;3.97;2.63;;;-3276.00;69.30;;;;;;6246552;28;20222;-62
2022/03/10 03:04:57;;;;;;;4.17;2.50;;;-3276.00;69.20;;;;;;6269472;28;20186;-63
2022/03/10 03:07:58;;;;;;;3.47;2.93;;;-3275.90;69.70;;;;;;6252111;28;20201;-62
2022/03/10 03:10:59;;;;;;;4.27;2.20;;;-3275.90;69.80;;;;;;6236137;28;20195;-62
2022/03/10 03:14:01;;;;;;;3.97;2.73;;;-3275.90;70.00;;;;;;6224775;28;20258;-63
2022/03/10 03:17:03;;;;;;;2.60;2.27;;;-3275.90;69.90;;;;;;6216825;28;20677;-62
2022/03/10 03:20:04;;;;;;;3.13;2.40;;;-3275.90;70.00;;;;;;6243326;28;20210;-63
2022/03/10 03:23:05;;;;;;;3.97;2.20;;;-3275.90;70.00;;;;;;6236178;28;20186;-63
2022/03/10 03:26:06;;;;;;;2.53;2.10;;;-3275.80;70.30;;;;;;6233676;28;20195;-62
2022/03/10 03:29:07;;;;;;;3.23;2.57;;;-3275.80;70.40;;;;;;6241283;28;20193;-62
2022/03/10 03:32:08;;;;;;;3.43;2.50;;;-3275.80;70.50;;;;;;6213953;28;20202;-63
2022/03/10 03:35:10;;;;;;;3.03;2.30;;;-3275.80;70.40;;;;;;6252315;28;20198;-63
2022/03/10 03:38:13;;;;;;;4.50;2.83;;;-3275.80;70.60;;;;;;6257304;28;20206;-62
2022/03/10 03:41:14;;;;;;;3.33;2.60;;;-3275.80;70.50;;;;;;6235365;28;20234;-63
2022/03/10 03:44:15;;;;;;;3.40;2.30;;;-3275.80;70.20;;;;;;6235030;28;20186;-63
2022/03/10 03:47:16;;;;;;;3.60;2.40;;;-3275.70;70.70;;;;;;6248988;28;20244;-62
2022/03/10 03:50:17;;;;;;;3.40;2.40;;;-3275.70;70.50;;;;;;6235246;28;20273;-62
2022/03/10 03:53:18;;;;;;;3.40;2.20;;;-3275.70;70.70;;;;;;6235258;28;20206;-62
2022/03/10 03:56:19;;;;;;;3.67;2.60;;;-3275.70;70.80;;;;;;6269402;28;20290;-62
2022/03/10 03:59:20;;;;;;;3.80;2.17;;;-3275.70;71.00;;;;;;6236310;28;20198;-62
2022/03/10 04:02:21;;;;;;;3.17;2.10;;;-3275.60;71.10;;;;;;6210269;28;20224;-62
2022/03/10 04:05:22;;;;;;;2.93;2.13;;;-3275.60;71.00;;;;;;6212494;28;20239;-62
2022/03/10 04:08:22;;;;;;;2.97;2.57;;;-3275.60;71.20;;;;;;6235084;28;20209;-63
2022/03/10 04:11:23;;;;;;;3.90;2.53;;;-3275.60;71.70;;;;;;6243041;28;20245;-62
2022/03/10 04:14:24;;;;;;;5.00;2.37;;;-3275.60;71.60;;;;;;6237868;28;20270;-62
2022/03/10 04:17:25;;;;;;;3.63;2.20;;;-3275.60;71.40;;;;;;6256155;28;20196;-62
2022/03/10 04:20:26;;;;;;;3.80;2.00;;;-3275.60;71.50;;;;;;6235828;28;20257;-63
2022/03/10 04:23:27;;;;;;;2.13;1.70;;;-3275.50;71.80;;;;;;6253715;28;20191;-62
2022/03/10 04:26:29;;;;;;;2.97;2.37;;;-3275.70;71.50;;;;;;6226367;28;20175;-62
2022/03/10 04:29:29;;;;;;;2.17;1.93;;;-3275.70;71.40;;;;;;6244827;28;20281;-62
2022/03/10 04:32:43;;;;;;;2.63;1.93;;;-3275.70;71.40;;;;;;6212835;28;20205;-62
2022/03/10 04:35:44;;;;;;;3.47;2.50;;;-3275.70;71.20;;;;;;6231535;28;20193;-63
2022/03/10 04:38:45;;;;;;;3.93;2.43;;;-3275.80;71.50;;;;;;6251052;28;20244;-63
2022/03/10 04:41:45;;;;;;;3.27;2.23;;;-3275.80;71.30;;;;;;6233625;28;20259;-62
2022/03/10 04:44:46;;;;;;;5.40;2.90;;;-3275.80;71.70;;;;;;6234403;28;20202;-62
2022/03/10 04:47:47;;;;;;;4.80;2.57;;;-3275.70;72.00;;;;;;6255656;28;20202;-63
2022/03/10 04:50:48;;;;;;;3.13;2.50;;;-3275.70;71.70;;;;;;6249924;28;20210;-63
2022/03/10 04:53:49;;;;;;;3.60;2.73;;;-3275.70;71.70;;;;;;6233878;28;20256;-62
2022/03/10 04:56:50;;;;;;;5.50;3.27;;;-3275.70;71.70;;;;;;6227386;28;20195;-62
2022/03/10 04:59:51;;;;;;;6.07;3.57;;;-3275.70;71.50;;;;;;6243441;28;20195;-63
2022/03/10 05:02:51;;;;;;;3.47;2.60;;;-3275.60;71.80;;;;;;6250951;28;20190;-62
2022/03/10 05:05:52;;;;;;;3.80;2.73;;;-3275.60;72.00;;;;;;6213440;28;20190;-63
2022/03/10 05:08:53;;;;;;;5.53;2.90;;;-3275.60;72.00;;;;;;6249188;28;20176;-62
2022/03/10 05:11:54;;;;;;;3.93;2.57;;;-3275.60;72.20;;;;;;6222649;28;20297;-62
2022/03/10 05:14:54;;;;;;;4.73;2.87;;;-3275.50;72.30;;;;;;6232794;28;20202;-62
2022/03/10 05:17:55;;;;;;;5.20;3.17;;;-3275.50;72.00;;;;;;6226742;28;20206;-62
2022/03/10 05:20:56;;;;;;;3.50;2.40;;;-3275.50;72.60;;;;;;6247700;28;20240;-63
2022/03/10 05:23:57;;;;;;;4.47;2.60;;;-3275.40;72.50;;;;;;6216326;28;20196;-63
2022/03/10 05:26:58;;;;;;;4.57;2.83;;;-3275.50;72.20;;;;;;6246026;28;20199;-62
2022/03/10 05:29:59;;;;;;;6.50;2.50;;;-3275.40;72.10;;;;;;6254436;28;20207;-63
2022/03/10 05:32:59;;;;;;;3.97;2.60;;;-3275.50;72.00;;;;;;6236578;28;20188;-63
2022/03/10 05:36:00;;;;;;;5.07;3.27;;;-3275.40;72.40;;;;;;6221250;28;20190;-63
2022/03/10 05:39:01;;;;;;;8.53;3.50;;;-3275.50;72.20;;;;;;6228077;28;20195;-62
2022/03/10 05:42:02;;;;;;;4.67;3.27;;;-3275.60;72.40;;;;;;6234847;28;20249;-60
2022/03/10 05:45:03;;;;;;;4.53;2.90;;;-3275.60;72.40;;;;;;6245617;28;20198;-58
2022/03/10 05:48:05;;;;;;;5.60;3.30;;;-3275.70;72.30;;;;;;6232566;28;20277;-58
2022/03/10 05:51:06;;;;;;;6.73;4.40;;;-3275.80;72.20;;;;;;6240041;28;20289;-58
2022/03/10 05:54:06;;;;;;;7.03;4.03;;;-3275.80;71.60;;;;;;6235273;28;20195;-60
2022/03/10 05:57:07;;;;;;;5.43;3.40;;;-3275.90;71.60;;;;;;6250539;28;20193;-58
2022/03/10 06:00:10;;;;;;;6.60;4.07;;;-3276.00;71.20;;;;;;6223313;28;20198;-60
2022/03/10 06:03:14;;;;;;;6.73;3.53;;;-3276.00;71.10;;;;;;6241728;28;20193;-59
2022/03/10 06:06:15;;;;;;;6.00;3.87;;;-3276.10;70.90;;;;;;6219802;28;20221;-60
2022/03/10 06:09:15;;;;;;;5.57;3.43;;;-3276.20;70.80;;;;;;6246411;28;20195;-61
2022/03/10 06:12:21;;;;;;;3.83;3.27;;;-3276.20;70.80;;;;;;6253889;28;20222;-60
2022/03/10 06:15:22;;;;;;;7.90;3.63;;;-3276.20;70.70;;;;;;6222835;28;20208;-60
2022/03/10 06:18:22;;;;;;;7.30;4.13;;;-3276.30;70.70;;;;;;6219799;28;20189;-59
2022/03/10 06:21:24;;;;;;;7.43;4.40;;;-3276.30;70.60;;;;;;6227748;28;20298;-60
2022/03/10 06:24:24;;;;;;;6.57;3.90;;;-3276.50;70.40;;;;;;6232426;28;20291;-59
2022/03/10 06:27:26;;;;;;;5.80;3.57;;;-3276.40;70.80;;;;;;6243437;28;20210;-59
2022/03/10 06:30:27;;;;;;;5.33;4.10;;;-3276.40;70.40;;;;;;6257926;28;20193;-61
2022/03/10 06:33:28;;;;;;;7.63;5.07;;;-3276.50;70.70;;;;;;6221820;28;20190;-61
2022/03/10 06:36:29;;;;;;;6.80;4.40;;;-3276.50;70.50;;;;;;6244772;28;20197;-61
2022/03/10 06:39:30;;;;;;;14.23;4.97;;;-3276.30;71.10;;;;;;6234709;28;20221;-61
2022/03/10 06:42:31;;;;;;;7.43;4.60;;;-3276.30;71.30;;;;;;6246453;28;20228;-60
2022/03/10 06:45:32;;;;;;;10.77;3.80;;;-3276.30;71.10;;;;;;6231319;28;20194;-60
2022/03/10 06:48:32;;;;;;;8.30;5.03;;;-3276.40;71.10;;;;;;6232319;28;20266;-60
2022/03/10 06:51:33;;;;;;;24.47;13.60;;;-3276.50;70.70;;;;;;6248031;28;20317;-60
2022/03/10 06:54:35;;;;;;;46.53;28.53;;;-3276.60;70.60;;;;;;6245469;28;20225;-57
2022/03/10 06:57:36;;;;;;;26.73;14.03;;;-3276.70;70.50;;;;;;6262550;28;20244;-61
2022/03/10 07:00:36;;;;;;;32.90;19.63;;;-3276.70;70.90;;;;;;6216870;28;20215;-61
2022/03/10 07:03:37;;;;;;;31.73;18.40;;;-3276.70;70.80;;;;;;6225647;28;20928;-61
2022/03/10 07:06:38;;;;;;;20.77;12.50;;;0.00;70.50;;;;;;6234319;28;20200;-61
2022/03/10 07:09:41;;;;;;;11.33;7.33;;;0.00;70.90;;;;;;6257342;28;20237;-62
2022/03/10 07:12:42;;;;;;;9.13;5.70;;;0.00;70.70;;;;;;6212126;28;20233;-61
2022/03/10 07:15:43;;;;;;;7.10;4.60;;;0.00;70.70;;;;;;6247220;28;20237;-61
2022/03/10 07:18:50;;;;;;;11.03;5.53;;;0.10;70.30;;;;;;6216386;28;20194;-61
2022/03/10 07:21:51;;;;;;;10.60;5.37;;;0.20;69.90;;;;;;6247264;28;20234;-61
2022/03/10 07:24:52;;;;;;;7.93;5.20;;;0.20;70.00;;;;;;6249962;28;20199;-61
2022/03/10 07:27:53;;;;;;;9.83;5.10;;;0.40;69.50;;;;;;6247558;28;20194;-61
2022/03/10 07:30:54;;;;;;;6.10;4.23;;;0.40;69.20;;;;;;6252031;28;20240;-61
2022/03/10 07:33:55;;;;;;;6.23;4.13;;;0.50;68.80;;;;;;6255278;28;20284;-61
2022/03/10 07:36:55;;;;;;;7.17;4.53;;;0.70;68.40;;;;;;6255666;28;20284;-60
2022/03/10 07:39:56;;;;;;;7.90;4.73;;;0.80;68.00;;;;;;6259549;28;20218;-60
2022/03/10 07:42:57;;;;;;;6.23;4.17;;;0.90;67.00;;;;;;6235984;28;20225;-61
2022/03/10 07:45:58;;;;;;;7.73;5.30;;;1.00;66.70;;;;;;6233683;28;20211;-61
2022/03/10 07:48:59;;;;;;;7.63;4.03;;;1.20;66.40;;;;;;6255389;28;20235;-61
2022/03/10 07:52:00;;;;;;;7.87;4.50;;;1.30;65.70;;;;;;6255014;28;20241;-61
2022/03/10 07:55:01;;;;;;;5.27;3.60;;;1.40;65.30;;;;;;6256009;28;20190;-59
2022/03/10 07:58:02;;;;;;;5.63;3.70;;;1.50;65.00;;;;;;6247697;28;20198;-60
2022/03/10 08:01:03;;;;;;;6.50;3.77;;;1.60;64.70;;;;;;6249207;28;20226;-60
2022/03/10 08:04:05;;;;;;;6.80;4.63;;;1.80;63.80;;;;;;6223414;28;20282;-60
2022/03/10 08:07:06;;;;;;;5.30;4.10;;;1.90;62.60;;;;;;6235356;28;20202;-61
2022/03/10 08:10:08;;;;;;;7.83;4.70;;;2.00;62.30;;;;;;6255028;28;20190;-60
2022/03/10 08:13:08;;;;;;;10.30;4.73;;;2.20;62.50;;;;;;6252328;28;20198;-60
2022/03/10 08:16:10;;;;;;;11.47;5.93;;;2.30;62.20;;;;;;6239817;28;20195;-59
2022/03/10 08:19:11;;;;;;;9.67;5.03;;;2.40;61.90;;;;;;6250516;28;20198;-58
2022/03/10 08:22:14;;;;;;;7.90;5.23;;;2.60;61.40;;;;;;6257699;28;20241;-57
2022/03/10 08:25:17;;;;;;;9.83;5.90;;;2.80;60.90;;;;;;6252086;28;20336;-57
2022/03/10 08:28:18;;;;;;;9.93;5.27;;;3.00;60.00;;;;;;6221095;28;20201;-59
2022/03/10 08:31:20;;;;;;;7.87;5.03;;;3.20;59.30;;;;;;6224961;28;20198;-59
2022/03/10 08:34:21;;;;;;;8.10;5.37;;;3.30;58.70;;;;;;6245119;28;20252;-58
2022/03/10 08:37:22;;;;;;;7.53;5.50;;;3.50;57.80;;;;;;6228757;28;20281;-58
2022/03/10 08:40:24;;;;;;;9.13;5.87;;;3.60;57.50;;;;;;6220904;28;20269;-59
2022/03/10 08:43:28;;;;;;;7.27;5.80;;;3.80;57.20;;;;;;6253589;28;20269;-59
2022/03/10 08:46:29;;;;;;;10.67;5.93;;;3.80;57.20;;;;;;6226902;28;20245;-60
2022/03/10 08:49:30;;;;;;;11.03;5.93;;;3.90;56.60;;;;;;6222561;28;20210;-58
2022/03/10 08:52:31;;;;;;;8.33;5.97;;;4.10;56.00;;;;;;6259733;28;20195;-57
2022/03/10 08:55:32;;;;;;;9.23;5.67;;;4.10;56.20;;;;;;6245404;28;20193;-58
2022/03/10 08:58:33;;;;;;;9.23;5.60;;;4.20;56.20;;;;;;6250624;28;20202;-58
2022/03/10 09:01:33;;;;;;;8.47;5.03;;;4.30;55.80;;;;;;6226971;28;20228;-59
2022/03/10 09:04:34;;;;;;;12.17;6.30;;;4.50;54.90;;;;;;6225121;28;20215;-60
2022/03/10 09:07:36;;;;;;;10.27;5.77;;;4.60;54.90;;;;;;6207965;28;20187;-62
2022/03/10 09:10:37;;;;;;;12.00;6.47;;;4.80;54.00;;;;;;6246625;28;20230;-59
2022/03/10 09:13:40;;;;;;;13.17;6.93;;;5.20;53.40;;;;;;6218076;28;20190;-59
2022/03/10 09:16:42;;;;;;;8.97;6.17;;;5.50;51.70;;;;;;6258615;28;20188;-59
2022/03/10 09:19:42;;;;;;;10.10;6.57;;;5.80;50.60;;;;;;6239737;28;20204;-58
2022/03/10 09:22:43;;;;;;;9.07;6.50;;;5.80;50.20;;;;;;6221442;28;20249;-59
2022/03/10 09:25:44;;;;;;;10.23;7.13;;;5.90;50.10;;;;;;6246833;28;20194;-59
2022/03/10 09:28:45;;;;;;;9.93;6.43;;;6.00;49.70;;;;;;6222778;28;20261;-58
2022/03/10 09:31:46;;;;;;;12.17;6.70;;;6.20;49.40;;;;;;6245954;28;20198;-59
2022/03/10 09:34:47;;;;;;;12.17;5.83;;;6.30;49.20;;;;;;6242601;28;20226;-58
2022/03/10 09:37:48;;;;;;;12.10;6.80;;;6.30;49.20;;;;;;6232398;28;20299;-59
2022/03/10 09:40:54;;;;;;;9.03;6.00;;;6.40;48.80;;;;;;6227281;28;20243;-59
2022/03/10 09:43:55;;;;;;;8.83;5.67;;;6.50;47.90;;;;;;6245501;28;20198;-58
2022/03/10 09:47:02;;;;;;;9.43;5.77;;;6.50;48.60;;;;;;6245485;28;20228;-59
2022/03/10 09:50:06;;;;;;;9.20;6.03;;;6.50;48.40;;;;;;6245095;28;20197;-58
2022/03/10 09:53:07;;;;;;;10.57;7.83;;;6.80;46.80;;;;;;6239762;28;20195;-58
2022/03/10 09:56:08;;;;;;;9.00;6.10;;;6.80;46.90;;;;;;6244349;28;20202;-58
2022/03/10 09:59:10;;;;;;;8.90;5.77;;;6.80;47.20;;;;;;6257038;28;20201;-59
2022/03/10 10:02:11;;;;;;;8.40;5.80;;;7.00;47.70;;;;;;6245897;28;20222;-60
2022/03/10 10:05:39;;;;;;;11.63;6.07;;;7.10;46.70;;;;;;6238351;28;20198;-57
2022/03/10 10:08:41;;;;;;;9.43;5.77;;;7.30;46.10;;;;;;6243862;28;20229;-58
2022/03/10 10:11:42;;;;;;;8.50;5.90;;;7.30;46.40;;;;;;6236151;28;20196;-57
2022/03/10 10:14:44;;;;;;;8.73;6.50;;;7.50;45.30;;;;;;6244980;28;20190;-58
2022/03/10 10:17:53;;;;;;;12.07;6.27;;;7.60;45.10;;;;;;6229472;28;20191;-58
2022/03/10 10:20:55;;;;;;;9.90;5.93;;;7.70;44.50;;;;;;6233524;28;20239;-58
2022/03/10 10:23:56;;;;;;;8.23;5.70;;;7.70;45.00;;;;;;6240997;28;20198;-58
2022/03/10 10:27:15;;;;;;;10.50;6.50;;;7.60;45.30;;;;;;6245883;28;20194;-57
2022/03/10 10:30:16;;;;;;;8.50;5.73;;;8.00;44.40;;;;;;6248430;28;20245;-58
2022/03/10 10:33:17;;;;;;;10.13;6.97;;;8.20;43.50;;;;;;6241174;28;20190;-58
2022/03/10 10:36:24;;;;;;;10.33;6.13;;;8.00;45.50;;;;;;6235200;28;20195;-58
2022/03/10 10:39:25;;;;;;;9.83;7.07;;;8.20;44.90;;;;;;6236366;28;20188;-62
2022/03/10 10:42:28;;;;;;;14.47;8.90;;;8.40;44.90;;;;;;6235877;28;20224;-59
2022/03/10 10:45:34;;;;;;;11.40;7.73;;;8.80;43.90;;;;;;6227028;28;20223;-60
2022/03/10 10:48:47;;;;;;;10.77;7.23;;;8.70;42.50;;;;;;6233818;28;20191;-59
2022/03/10 10:51:53;;;;;;;11.43;7.53;;;8.60;43.80;;;;;;6256157;28;20199;-59
2022/03/10 10:55:13;;;;;;;9.60;7.80;;;9.00;43.30;;;;;;6235823;28;20199;-59
2022/03/10 10:58:15;;;;;;;11.10;8.10;;;9.10;43.60;;;;;;6222648;28;20286;-59
2022/03/10 11:01:36;;;;;;;11.13;7.80;;;9.30;43.00;;;;;;6235501;28;20222;-60
2022/03/10 11:04:38;;;;;;;14.30;8.67;;;9.50;42.10;;;;;;6235438;28;20207;-60
2022/03/10 11:07:40;;;;;;;11.80;8.40;;;9.40;41.20;;;;;;6251617;28;20282;-59
2022/03/10 11:10:41;;;;;;;12.37;8.50;;;9.50;41.60;;;;;;6252831;28;20186;-59
2022/03/10 11:13:42;;;;;;;13.63;9.70;;;9.60;42.00;;;;;;6234446;28;20332;-58
2022/03/10 11:16:45;;;;;;;14.37;9.10;;;10.20;41.40;;;;;;6226984;28;20202;-58
2022/03/10 11:19:53;;;;;;;11.07;8.00;;;10.10;41.70;;;;;;6234655;28;20190;-58
2022/03/10 11:23:08;;;;;;;12.20;8.97;;;10.10;41.50;;;;;;6246235;28;20251;-57
2022/03/10 11:26:34;;;;;;;10.50;7.93;;;10.20;42.00;;;;;;6247893;28;20188;-58
2022/03/10 11:29:36;;;;;;;12.80;9.20;;;10.30;41.70;;;;;;6260282;28;20198;-58
2022/03/10 11:32:37;;;;;;;13.27;8.83;;;10.40;40.40;;;;;;6252166;28;20222;-57
2022/03/10 11:35:43;;;;;;;14.03;9.80;;;10.50;40.60;;;;;;6228432;28;20278;-59
2022/03/10 11:39:05;;;;;;;10.67;8.20;;;10.60;40.70;;;;;;6233932;28;20252;-57
2022/03/10 11:42:39;;;;;;;11.97;9.77;;;10.70;40.40;;;;;;6251450;28;20225;-58
2022/03/10 11:45:40;;;;;;;12.50;9.53;;;11.10;39.80;;;;;;6208265;28;20302;-56
2022/03/10 11:48:42;;;;;;;11.87;9.17;;;11.30;39.30;;;;;;6251609;28;20198;-58
2022/03/10 11:51:50;;;;;;;11.83;8.90;;;11.30;39.50;;;;;;6216736;28;20242;-59
2022/03/10 11:55:08;;;;;;;11.37;8.70;;;11.60;39.30;;;;;;6246075;28;20195;-59
2022/03/10 11:58:12;;;;;;;12.40;9.53;;;11.80;39.50;;;;;;6245273;28;20270;-58
2022/03/10 12:01:19;;;;;;;12.93;10.70;;;12.20;39.30;;;;;;6250812;28;20219;-57
2022/03/10 12:04:21;;;;;;;16.40;10.97;;;12.60;38.70;;;;;;6244318;28;20379;-60
2022/03/10 12:07:28;;;;;;;15.20;11.30;;;12.90;37.00;;;;;;6275329;28;20191;-59
2022/03/10 12:10:40;;;;;;;13.53;9.97;;;12.80;36.20;;;;;;6268088;28;20201;-58
2022/03/10 12:13:46;;;;;;;12.13;10.30;;;12.90;36.80;;;;;;6250221;28;20293;-61
2022/03/10 12:16:47;;;;;;;15.00;10.50;;;13.20;36.90;;;;;;6231694;28;20199;-59
2022/03/10 12:20:10;;;;;;;15.33;11.20;;;13.30;35.40;;;;;;6243453;28;20225;-59
2022/03/10 12:23:15;;;;;;;13.47;10.80;;;13.50;36.40;;;;;;6210219;28;20191;-57
2022/03/10 12:26:33;;;;;;;21.67;14.60;;;14.00;34.90;;;;;;6249496;28;20199;-55
2022/03/10 12:29:35;;;;;;;13.23;11.27;;;14.30;34.30;;;;;;6264822;28;20274;-57
2022/03/10 12:32:40;;;;;;;13.87;10.90;;;14.20;34.50;;;;;;6231111;28;20268;-57
2022/03/10 12:35:41;;;;;;;12.90;9.43;;;15.30;33.40;;;;;;6254414;28;20200;-57
2022/03/10 12:38:46;;;;;;;13.37;10.30;;;17.80;29.80;;;;;;6253670;28;20214;-58
2022/03/10 12:41:50;;;;;;;12.83;9.67;;;19.50;26.40;;;;;;6241738;28;20213;-55
2022/03/10 12:44:54;;;;;;;11.80;10.47;;;21.40;24.60;;;;;;6245560;28;20191;-57
2022/03/10 12:48:44;;;;;;;11.90;10.60;;;24.20;21.80;;;;;;6236089;28;20224;-56
2022/03/10 12:51:45;;;;;;;11.00;9.90;;;26.90;19.30;;;;;;6223542;28;20207;-57
2022/03/10 12:54:46;;;;;;;12.17;10.97;;;27.20;18.40;;;;;;6225975;28;20198;-56
2022/03/10 12:57:47;;;;;;;11.90;10.70;;;28.20;17.70;;;;;;6251561;28;20200;-57
2022/03/10 13:00:48;;;;;;;12.33;11.13;;;29.10;16.80;;;;;;6270799;28;20217;-57
2022/03/10 13:03:56;;;;;;;12.70;11.50;;;27.70;17.20;;;;;;6223324;28;20454;-56
2022/03/10 13:07:00;;;;;;;13.33;12.03;;;25.20;19.40;;;;;;6250131;28;20257;-57
2022/03/10 13:10:09;;;;;;;11.13;10.10;;;26.30;19.10;;;;;;6251533;28;20205;-56
2022/03/10 13:13:11;;;;;;;12.60;11.37;;;25.90;19.40;;;;;;6231696;28;20324;-56
2022/03/10 13:16:11;;;;;;;11.23;10.00;;;25.90;18.60;;;;;;6266062;28;20193;-56
2022/03/10 13:19:27;;;;;;;13.13;11.83;;;26.10;18.40;;;;;;6265792;28;20194;-57
2022/03/10 13:22:28;;;;;;;14.07;12.13;;;25.70;19.10;;;;;;6226971;28;20273;-56
2022/03/10 13:25:37;;;;;;;12.13;10.83;;;25.10;19.00;;;;;;6255287;28;20198;-55
2022/03/10 13:28:38;;;;;;;14.90;12.37;;;26.00;19.10;;;;;;6258874;28;20186;-54
2022/03/10 13:31:39;;;;;;;13.60;12.13;;;27.50;17.70;;;;;;6270337;28;20226;-52
2022/03/10 13:34:41;;;;;;;11.77;10.57;;;26.70;17.70;;;;;;6249165;28;20205;-54
2022/03/10 13:37:43;;;;;;;13.27;12.07;;;26.20;19.00;;;;;;6256259;28;20219;-55
2022/03/10 13:40:45;;;;;;;13.13;10.80;;;27.00;17.80;;;;;;6220251;28;20244;-53
2022/03/10 13:43:45;;;;;;;14.17;12.77;;;27.40;17.70;;;;;;6225109;28;20227;-53
2022/03/10 13:46:46;;;;;;;15.27;13.70;;;28.80;16.50;;;;;;6241412;28;20271;-54
2022/03/10 13:49:50;;;;;;;13.43;12.10;;;27.60;16.90;;;;;;6230523;28;20194;-54
2022/03/10 13:52:56;;;;;;;13.23;11.93;;;28.30;16.90;;;;;;6241948;28;20205;-55
2022/03/10 13:55:58;;;;;;;13.83;12.40;;;28.20;17.10;;;;;;6218135;28;20187;-54
2022/03/10 13:59:02;;;;;;;15.00;13.40;;;28.40;17.00;;;;;;6222301;28;20221;-53
2022/03/10 14:02:16;;;;;;;13.43;12.07;;;29.30;16.60;;;;;;6231387;28;20281;-55
2022/03/10 14:05:17;;;;;;;15.33;13.93;;;29.00;16.80;;;;;;6265458;28;20198;-55
2022/03/10 14:08:23;;;;;;;17.23;15.43;;;30.00;15.60;;;;;;6247854;28;20255;-54
2022/03/10 14:11:28;;;;;;;16.90;15.17;;;27.10;16.80;;;;;;6248102;28;20282;-50
2022/03/10 14:14:37;;;;;;;17.37;15.57;;;25.80;18.70;;;;;;6243042;28;20193;-52
2022/03/10 14:17:42;;;;;;;15.20;13.73;;;26.50;18.10;;;;;;6243257;28;20209;-53
2022/03/10 14:20:49;;;;;;;15.00;13.53;;;26.40;18.70;;;;;;6238676;28;20265;-55
2022/03/10 14:24:04;;;;;;;16.63;15.03;;;26.30;18.80;;;;;;6245454;28;20187;-56
2022/03/10 14:27:10;;;;;;;15.53;13.77;;;24.70;19.40;;;;;;6217728;28;20214;-55
2022/03/10 14:30:12;;;;;;;17.10;15.30;;;24.40;20.30;;;;;;6248366;28;20245;-53
2022/03/10 14:33:13;;;;;;;16.90;15.20;;;23.60;20.40;;;;;;6241730;28;20246;-52
2022/03/10 14:36:18;;;;;;;16.40;14.80;;;23.70;20.80;;;;;;6210192;28;20200;-54
2022/03/10 14:39:19;;;;;;;16.13;14.43;;;25.30;19.50;;;;;;6249199;28;20278;-54
2022/03/10 14:42:20;;;;;;;18.53;15.57;;;25.30;19.40;;;;;;6208799;28;20325;-52
2022/03/10 14:45:21;;;;;;;18.27;16.47;;;23.50;20.50;;;;;;6248570;28;20228;-54
2022/03/10 14:48:22;;;;;;;18.33;15.53;;;21.40;22.30;;;;;;6236336;28;20202;-52
2022/03/10 14:51:23;;;;;;;16.43;13.87;;;20.10;23.70;;;;;;6238344;28;20244;-54
2022/03/10 14:54:24;;;;;;;16.83;14.87;;;18.70;25.90;;;;;;6217606;28;20182;-54
2022/03/10 14:57:24;;;;;;;18.40;14.33;;;17.70;27.20;;;;;;6208247;28;20284;-52
2022/03/10 15:00:26;;;;;;;16.07;14.27;;;16.60;28.20;;;;;;6240821;28;20186;-52
2022/03/10 15:03:26;;;;;;;17.23;15.53;;;16.10;28.50;;;;;;6239253;28;20259;-53
2022/03/10 15:06:28;;;;;;;17.07;14.07;;;15.40;30.40;;;;;;6239856;28;20193;-49
2022/03/10 15:09:29;;;;;;;16.27;13.77;;;15.90;30.40;;;;;;6250959;28;21226;-54
2022/03/10 15:12:31;;;;;;;16.73;14.33;;;17.80;27.40;;;;;;6248111;28;20198;-53
2022/03/10 15:15:33;;;;;;;14.87;13.37;;;19.20;25.80;;;;;;6232088;28;20226;-54
2022/03/10 15:18:35;;;;;;;14.67;12.97;;;20.80;23.90;;;;;;6248366;28;20225;-55
2022/03/10 15:21:36;;;;;;;14.57;12.90;;;21.30;22.90;;;;;;6252281;28;20231;-54
2022/03/10 15:24:37;;;;;;;15.93;13.60;;;21.80;22.60;;;;;;6233330;28;20337;-54
2022/03/10 15:27:37;;;;;;;16.20;14.07;;;21.30;22.50;;;;;;6237950;28;20199;-55
2022/03/10 15:30:42;;;;;;;15.67;13.83;;;20.20;23.40;;;;;;6236571;28;20286;-52
2022/03/10 15:33:43;;;;;;;15.50;12.33;;;18.90;25.10;;;;;;6243755;28;20289;-52
2022/03/10 15:36:44;;;;;;;15.10;13.17;;;18.60;25.60;;;;;;6235312;28;20202;-55